sensor_id;sensor_type;location;lat;lon;timestamp;P1;durP1;ratioP1;P2;durP2;ratioP2
52047;SDS011;46904;49.438;8.752;2022-11-20T00:00:41;4.00;;;3.13;;
52047;SDS011;46904;49.438;8.752;2022-11-20T00:03:07;6.75;;;3.80;;
52047;SDS011;46904;49.438;8.752;2022-11-20T00:05:33;5.05;;;3.80;;
52047;SDS011;46904;49.438;8.752;2022-11-20T00:07:58;4.18;;;3.42;;
52047;SDS011;46904;49.438;8.752;2022-11-20T00:10:24;5.00;;;3.63;;
52047;SDS011;46904;49.438;8.752;2022-11-20T00:12:49;4.03;;;3.10;;
52047;SDS011;46904;49.438;8.752;2022-11-20T00:15:15;4.75;;;3.53;;
52047;SDS011;46904;49.438;8.752;2022-11-20T00:17:41;4.57;;;3.28;;
52047;SDS011;46904;49.438;8.752;2022-11-20T00:20:07;4.85;;;3.60;;
52047;SDS011;46904;49.438;8.752;2022-11-20T00:22:33;4.20;;;3.42;;
52047;SDS011;46904;49.438;8.752;2022-11-20T00:24:58;6.68;;;3.70;;
52047;SDS011;46904;49.438;8.752;2022-11-20T00:27:24;4.25;;;3.40;;
52047;SDS011;46904;49.438;8.752;2022-11-20T00:29:49;5.05;;;3.60;;
52047;SDS011;46904;49.438;8.752;2022-11-20T00:32:15;4.35;;;3.42;;
52047;SDS011;46904;49.438;8.752;2022-11-20T00:34:40;5.18;;;3.40;;
52047;SDS011;46904;49.438;8.752;2022-11-20T00:37:06;5.40;;;3.67;;
52047;SDS011;46904;49.438;8.752;2022-11-20T00:39:32;4.95;;;3.22;;
52047;SDS011;46904;49.438;8.752;2022-11-20T00:41:57;4.20;;;3.30;;
52047;SDS011;46904;49.438;8.752;2022-11-20T00:44:23;3.53;;;2.83;;
52047;SDS011;46904;49.438;8.752;2022-11-20T00:46:49;3.83;;;3.10;;
52047;SDS011;46904;49.438;8.752;2022-11-20T00:49:14;4.22;;;2.90;;
52047;SDS011;46904;49.438;8.752;2022-11-20T00:51:40;4.15;;;3.20;;
52047;SDS011;46904;49.438;8.752;2022-11-20T00:54:05;3.80;;;2.97;;
52047;SDS011;46904;49.438;8.752;2022-11-20T00:56:31;4.57;;;3.55;;
52047;SDS011;46904;49.438;8.752;2022-11-20T00:58:58;4.35;;;3.45;;
52047;SDS011;46904;49.438;8.752;2022-11-20T01:01:24;4.15;;;3.40;;
52047;SDS011;46904;49.438;8.752;2022-11-20T01:03:50;5.05;;;3.63;;
52047;SDS011;46904;49.438;8.752;2022-11-20T01:08:42;5.88;;;3.83;;
52047;SDS011;46904;49.438;8.752;2022-11-20T01:11:09;4.32;;;3.38;;
52047;SDS011;46904;49.438;8.752;2022-11-20T01:13:36;6.10;;;3.72;;
52047;SDS011;46904;49.438;8.752;2022-11-20T01:16:09;4.20;;;3.20;;
52047;SDS011;46904;49.438;8.752;2022-11-20T01:18:35;5.07;;;3.17;;
52047;SDS011;46904;49.438;8.752;2022-11-20T01:21:02;5.00;;;3.38;;
52047;SDS011;46904;49.438;8.752;2022-11-20T01:23:30;4.82;;;3.13;;
52047;SDS011;46904;49.438;8.752;2022-11-20T01:25:56;4.22;;;3.28;;
52047;SDS011;46904;49.438;8.752;2022-11-20T01:28:21;5.20;;;3.70;;
52047;SDS011;46904;49.438;8.752;2022-11-20T01:30:47;3.90;;;3.45;;
52047;SDS011;46904;49.438;8.752;2022-11-20T01:33:12;4.25;;;3.28;;
52047;SDS011;46904;49.438;8.752;2022-11-20T01:35:38;4.22;;;3.20;;
52047;SDS011;46904;49.438;8.752;2022-11-20T01:38:04;5.10;;;3.85;;
52047;SDS011;46904;49.438;8.752;2022-11-20T01:40:29;5.60;;;3.92;;
52047;SDS011;46904;49.438;8.752;2022-11-20T01:43:00;7.07;;;4.20;;
52047;SDS011;46904;49.438;8.752;2022-11-20T01:48:14;5.05;;;3.85;;
52047;SDS011;46904;49.438;8.752;2022-11-20T01:50:40;5.32;;;3.95;;
52047;SDS011;46904;49.438;8.752;2022-11-20T01:53:06;4.75;;;3.60;;
52047;SDS011;46904;49.438;8.752;2022-11-20T01:55:36;5.85;;;4.60;;
52047;SDS011;46904;49.438;8.752;2022-11-20T01:58:05;3.95;;;3.08;;
52047;SDS011;46904;49.438;8.752;2022-11-20T02:00:31;5.13;;;3.85;;
52047;SDS011;46904;49.438;8.752;2022-11-20T02:03:03;5.63;;;4.40;;
52047;SDS011;46904;49.438;8.752;2022-11-20T02:05:35;7.10;;;4.25;;
52047;SDS011;46904;49.438;8.752;2022-11-20T02:08:02;5.45;;;4.13;;
52047;SDS011;46904;49.438;8.752;2022-11-20T02:10:28;5.20;;;4.10;;
52047;SDS011;46904;49.438;8.752;2022-11-20T02:12:54;5.50;;;4.20;;
52047;SDS011;46904;49.438;8.752;2022-11-20T02:15:20;6.65;;;4.35;;
52047;SDS011;46904;49.438;8.752;2022-11-20T02:17:46;6.13;;;4.43;;
52047;SDS011;46904;49.438;8.752;2022-11-20T02:20:11;6.25;;;4.22;;
52047;SDS011;46904;49.438;8.752;2022-11-20T02:22:48;6.20;;;4.75;;
52047;SDS011;46904;49.438;8.752;2022-11-20T02:25:16;6.25;;;4.22;;
52047;SDS011;46904;49.438;8.752;2022-11-20T02:27:41;6.10;;;4.00;;
52047;SDS011;46904;49.438;8.752;2022-11-20T02:30:07;6.03;;;4.53;;
52047;SDS011;46904;49.438;8.752;2022-11-20T02:32:34;6.35;;;4.43;;
52047;SDS011;46904;49.438;8.752;2022-11-20T02:37:44;6.30;;;4.43;;
52047;SDS011;46904;49.438;8.752;2022-11-20T02:40:11;7.03;;;4.50;;
52047;SDS011;46904;49.438;8.752;2022-11-20T02:42:37;6.68;;;5.00;;
52047;SDS011;46904;49.438;8.752;2022-11-20T02:45:03;6.07;;;4.10;;
52047;SDS011;46904;49.438;8.752;2022-11-20T02:47:29;7.22;;;4.70;;
52047;SDS011;46904;49.438;8.752;2022-11-20T02:49:54;5.93;;;4.35;;
52047;SDS011;46904;49.438;8.752;2022-11-20T02:52:20;7.25;;;4.20;;
52047;SDS011;46904;49.438;8.752;2022-11-20T02:54:46;6.18;;;4.22;;
52047;SDS011;46904;49.438;8.752;2022-11-20T02:57:11;5.57;;;4.07;;
52047;SDS011;46904;49.438;8.752;2022-11-20T02:59:37;5.45;;;4.18;;
52047;SDS011;46904;49.438;8.752;2022-11-20T03:02:02;5.88;;;4.18;;
52047;SDS011;46904;49.438;8.752;2022-11-20T03:04:28;5.78;;;4.00;;
52047;SDS011;46904;49.438;8.752;2022-11-20T03:06:54;5.30;;;3.67;;
52047;SDS011;46904;49.438;8.752;2022-11-20T03:09:19;5.75;;;4.00;;
52047;SDS011;46904;49.438;8.752;2022-11-20T03:11:45;5.10;;;3.60;;
52047;SDS011;46904;49.438;8.752;2022-11-20T03:14:10;4.90;;;3.38;;
52047;SDS011;46904;49.438;8.752;2022-11-20T03:16:36;5.72;;;3.85;;
52047;SDS011;46904;49.438;8.752;2022-11-20T03:19:01;3.92;;;3.25;;
52047;SDS011;46904;49.438;8.752;2022-11-20T03:21:27;4.38;;;3.20;;
52047;SDS011;46904;49.438;8.752;2022-11-20T03:23:53;4.00;;;3.10;;
52047;SDS011;46904;49.438;8.752;2022-11-20T03:26:20;5.55;;;3.65;;
52047;SDS011;46904;49.438;8.752;2022-11-20T03:28:47;4.18;;;3.05;;
52047;SDS011;46904;49.438;8.752;2022-11-20T03:31:14;4.68;;;3.05;;
52047;SDS011;46904;49.438;8.752;2022-11-20T03:33:41;4.15;;;2.92;;
52047;SDS011;46904;49.438;8.752;2022-11-20T03:36:08;2.78;;;2.50;;
52047;SDS011;46904;49.438;8.752;2022-11-20T03:38:33;4.03;;;3.03;;
52047;SDS011;46904;49.438;8.752;2022-11-20T03:41:03;4.63;;;3.10;;
52047;SDS011;46904;49.438;8.752;2022-11-20T03:43:30;3.85;;;3.05;;
52047;SDS011;46904;49.438;8.752;2022-11-20T03:45:55;4.40;;;3.42;;
52047;SDS011;46904;49.438;8.752;2022-11-20T03:48:21;6.53;;;3.35;;
52047;SDS011;46904;49.438;8.752;2022-11-20T03:50:47;4.32;;;2.70;;
52047;SDS011;46904;49.438;8.752;2022-11-20T03:53:15;6.43;;;3.67;;
52047;SDS011;46904;49.438;8.752;2022-11-20T03:55:41;5.00;;;3.15;;
52047;SDS011;46904;49.438;8.752;2022-11-20T03:58:07;3.75;;;2.72;;
52047;SDS011;46904;49.438;8.752;2022-11-20T04:00:32;4.38;;;3.60;;
52047;SDS011;46904;49.438;8.752;2022-11-20T04:02:58;3.83;;;3.25;;
52047;SDS011;46904;49.438;8.752;2022-11-20T04:05:24;5.60;;;3.50;;
52047;SDS011;46904;49.438;8.752;2022-11-20T04:07:50;6.47;;;4.15;;
52047;SDS011;46904;49.438;8.752;2022-11-20T04:10:15;5.93;;;4.38;;
52047;SDS011;46904;49.438;8.752;2022-11-20T04:12:41;6.10;;;4.40;;
52047;SDS011;46904;49.438;8.752;2022-11-20T04:15:07;6.90;;;4.25;;
52047;SDS011;46904;49.438;8.752;2022-11-20T04:17:32;4.78;;;3.65;;
52047;SDS011;46904;49.438;8.752;2022-11-20T04:19:58;5.10;;;3.60;;
52047;SDS011;46904;49.438;8.752;2022-11-20T04:22:23;4.15;;;3.38;;
52047;SDS011;46904;49.438;8.752;2022-11-20T04:24:49;4.45;;;3.47;;
52047;SDS011;46904;49.438;8.752;2022-11-20T04:27:15;4.35;;;3.38;;
52047;SDS011;46904;49.438;8.752;2022-11-20T04:29:40;3.90;;;3.28;;
52047;SDS011;46904;49.438;8.752;2022-11-20T04:32:06;4.55;;;3.35;;
52047;SDS011;46904;49.438;8.752;2022-11-20T04:34:31;4.32;;;3.40;;
52047;SDS011;46904;49.438;8.752;2022-11-20T04:36:57;5.47;;;3.63;;
52047;SDS011;46904;49.438;8.752;2022-11-20T04:39:23;5.50;;;4.10;;
52047;SDS011;46904;49.438;8.752;2022-11-20T04:41:48;5.60;;;3.53;;
52047;SDS011;46904;49.438;8.752;2022-11-20T04:44:14;5.30;;;3.65;;
52047;SDS011;46904;49.438;8.752;2022-11-20T04:46:40;5.18;;;3.33;;
52047;SDS011;46904;49.438;8.752;2022-11-20T04:49:06;6.38;;;4.05;;
52047;SDS011;46904;49.438;8.752;2022-11-20T04:51:32;6.22;;;4.22;;
52047;SDS011;46904;49.438;8.752;2022-11-20T04:53:58;5.18;;;3.80;;
52047;SDS011;46904;49.438;8.752;2022-11-20T04:56:23;5.00;;;3.50;;
52047;SDS011;46904;49.438;8.752;2022-11-20T04:58:49;6.35;;;4.15;;
52047;SDS011;46904;49.438;8.752;2022-11-20T05:01:16;5.30;;;3.80;;
52047;SDS011;46904;49.438;8.752;2022-11-20T05:03:42;5.22;;;3.50;;
52047;SDS011;46904;49.438;8.752;2022-11-20T05:06:08;5.38;;;3.55;;
52047;SDS011;46904;49.438;8.752;2022-11-20T05:08:34;6.25;;;5.00;;
52047;SDS011;46904;49.438;8.752;2022-11-20T05:11:01;7.00;;;4.40;;
52047;SDS011;46904;49.438;8.752;2022-11-20T05:13:26;5.68;;;4.05;;
52047;SDS011;46904;49.438;8.752;2022-11-20T05:15:52;5.43;;;3.70;;
52047;SDS011;46904;49.438;8.752;2022-11-20T05:18:17;5.85;;;4.10;;
52047;SDS011;46904;49.438;8.752;2022-11-20T05:20:43;5.75;;;4.07;;
52047;SDS011;46904;49.438;8.752;2022-11-20T05:23:09;6.13;;;3.28;;
52047;SDS011;46904;49.438;8.752;2022-11-20T05:25:34;4.35;;;3.40;;
52047;SDS011;46904;49.438;8.752;2022-11-20T05:28:00;5.38;;;3.15;;
52047;SDS011;46904;49.438;8.752;2022-11-20T05:30:25;3.60;;;2.70;;
52047;SDS011;46904;49.438;8.752;2022-11-20T05:32:51;5.28;;;3.22;;
52047;SDS011;46904;49.438;8.752;2022-11-20T05:35:17;4.60;;;3.63;;
52047;SDS011;46904;49.438;8.752;2022-11-20T05:37:42;7.47;;;4.30;;
52047;SDS011;46904;49.438;8.752;2022-11-20T05:40:08;5.78;;;4.13;;
52047;SDS011;46904;49.438;8.752;2022-11-20T05:42:34;4.82;;;3.42;;
52047;SDS011;46904;49.438;8.752;2022-11-20T05:45:00;7.13;;;4.00;;
52047;SDS011;46904;49.438;8.752;2022-11-20T05:47:27;6.40;;;3.80;;
52047;SDS011;46904;49.438;8.752;2022-11-20T05:49:52;5.32;;;3.83;;
52047;SDS011;46904;49.438;8.752;2022-11-20T05:52:18;5.00;;;3.40;;
52047;SDS011;46904;49.438;8.752;2022-11-20T05:54:43;4.53;;;3.33;;
52047;SDS011;46904;49.438;8.752;2022-11-20T05:57:09;4.80;;;3.75;;
52047;SDS011;46904;49.438;8.752;2022-11-20T05:59:35;5.00;;;3.70;;
52047;SDS011;46904;49.438;8.752;2022-11-20T06:02:00;6.57;;;3.90;;
52047;SDS011;46904;49.438;8.752;2022-11-20T06:04:26;5.15;;;3.22;;
52047;SDS011;46904;49.438;8.752;2022-11-20T06:06:51;7.60;;;2.97;;
52047;SDS011;46904;49.438;8.752;2022-11-20T06:09:17;4.53;;;3.20;;
52047;SDS011;46904;49.438;8.752;2022-11-20T06:11:43;4.20;;;3.30;;
52047;SDS011;46904;49.438;8.752;2022-11-20T06:14:08;3.90;;;2.97;;
52047;SDS011;46904;49.438;8.752;2022-11-20T06:16:34;6.03;;;3.60;;
52047;SDS011;46904;49.438;8.752;2022-11-20T06:18:59;4.35;;;3.35;;
52047;SDS011;46904;49.438;8.752;2022-11-20T06:21:25;5.50;;;4.22;;
52047;SDS011;46904;49.438;8.752;2022-11-20T06:23:51;6.13;;;4.45;;
52047;SDS011;46904;49.438;8.752;2022-11-20T06:26:18;5.03;;;3.97;;
52047;SDS011;46904;49.438;8.752;2022-11-20T06:28:44;6.00;;;4.30;;
52047;SDS011;46904;49.438;8.752;2022-11-20T06:31:12;5.78;;;4.07;;
52047;SDS011;46904;49.438;8.752;2022-11-20T06:33:37;5.40;;;3.90;;
52047;SDS011;46904;49.438;8.752;2022-11-20T06:36:03;5.10;;;3.95;;
52047;SDS011;46904;49.438;8.752;2022-11-20T06:38:29;6.03;;;3.67;;
52047;SDS011;46904;49.438;8.752;2022-11-20T06:40:55;4.10;;;3.70;;
52047;SDS011;46904;49.438;8.752;2022-11-20T06:43:21;4.88;;;3.72;;
52047;SDS011;46904;49.438;8.752;2022-11-20T06:45:51;4.60;;;3.50;;
52047;SDS011;46904;49.438;8.752;2022-11-20T06:48:17;4.93;;;3.53;;
52047;SDS011;46904;49.438;8.752;2022-11-20T06:50:42;5.75;;;3.97;;
52047;SDS011;46904;49.438;8.752;2022-11-20T06:53:08;5.60;;;4.05;;
52047;SDS011;46904;49.438;8.752;2022-11-20T06:55:33;4.45;;;3.25;;
52047;SDS011;46904;49.438;8.752;2022-11-20T06:57:59;3.65;;;3.08;;
52047;SDS011;46904;49.438;8.752;2022-11-20T07:00:25;4.07;;;3.25;;
52047;SDS011;46904;49.438;8.752;2022-11-20T07:02:51;4.72;;;3.70;;
52047;SDS011;46904;49.438;8.752;2022-11-20T07:05:17;5.00;;;3.80;;
52047;SDS011;46904;49.438;8.752;2022-11-20T07:07:42;4.10;;;3.13;;
52047;SDS011;46904;49.438;8.752;2022-11-20T07:10:08;5.47;;;3.88;;
52047;SDS011;46904;49.438;8.752;2022-11-20T07:12:34;6.57;;;4.68;;
52047;SDS011;46904;49.438;8.752;2022-11-20T07:14:59;4.75;;;3.67;;
52047;SDS011;46904;49.438;8.752;2022-11-20T07:17:25;5.68;;;3.88;;
52047;SDS011;46904;49.438;8.752;2022-11-20T07:19:51;5.80;;;3.75;;
52047;SDS011;46904;49.438;8.752;2022-11-20T07:22:16;4.95;;;3.83;;
52047;SDS011;46904;49.438;8.752;2022-11-20T07:24:42;6.18;;;4.45;;
52047;SDS011;46904;49.438;8.752;2022-11-20T07:27:07;5.47;;;3.78;;
52047;SDS011;46904;49.438;8.752;2022-11-20T07:29:33;4.82;;;3.92;;
52047;SDS011;46904;49.438;8.752;2022-11-20T07:31:58;4.15;;;3.30;;
52047;SDS011;46904;49.438;8.752;2022-11-20T07:34:24;4.43;;;3.03;;
52047;SDS011;46904;49.438;8.752;2022-11-20T07:36:50;5.90;;;3.70;;
52047;SDS011;46904;49.438;8.752;2022-11-20T07:39:15;4.07;;;3.33;;
52047;SDS011;46904;49.438;8.752;2022-11-20T07:41:41;5.63;;;3.72;;
52047;SDS011;46904;49.438;8.752;2022-11-20T07:44:06;4.40;;;3.92;;
52047;SDS011;46904;49.438;8.752;2022-11-20T07:46:32;5.22;;;4.18;;
52047;SDS011;46904;49.438;8.752;2022-11-20T07:48:58;5.97;;;4.35;;
52047;SDS011;46904;49.438;8.752;2022-11-20T07:51:23;4.63;;;4.05;;
52047;SDS011;46904;49.438;8.752;2022-11-20T07:53:52;6.18;;;4.10;;
52047;SDS011;46904;49.438;8.752;2022-11-20T07:56:18;5.78;;;4.07;;
52047;SDS011;46904;49.438;8.752;2022-11-20T07:58:43;6.53;;;3.78;;
52047;SDS011;46904;49.438;8.752;2022-11-20T08:01:09;5.93;;;3.85;;
52047;SDS011;46904;49.438;8.752;2022-11-20T08:03:35;5.20;;;3.75;;
52047;SDS011;46904;49.438;8.752;2022-11-20T08:06:01;5.35;;;4.28;;
52047;SDS011;46904;49.438;8.752;2022-11-20T08:08:27;5.63;;;3.95;;
52047;SDS011;46904;49.438;8.752;2022-11-20T08:10:52;5.18;;;3.95;;
52047;SDS011;46904;49.438;8.752;2022-11-20T08:13:18;4.63;;;3.80;;
52047;SDS011;46904;49.438;8.752;2022-11-20T08:15:47;5.97;;;4.28;;
52047;SDS011;46904;49.438;8.752;2022-11-20T08:18:13;4.70;;;3.75;;
52047;SDS011;46904;49.438;8.752;2022-11-20T08:20:38;6.00;;;3.92;;
52047;SDS011;46904;49.438;8.752;2022-11-20T08:23:05;4.10;;;3.60;;
52047;SDS011;46904;49.438;8.752;2022-11-20T08:25:31;4.85;;;3.70;;
52047;SDS011;46904;49.438;8.752;2022-11-20T08:27:58;4.47;;;3.85;;
52047;SDS011;46904;49.438;8.752;2022-11-20T08:30:23;4.13;;;3.38;;
52047;SDS011;46904;49.438;8.752;2022-11-20T08:32:49;5.90;;;4.30;;
52047;SDS011;46904;49.438;8.752;2022-11-20T08:35:15;5.63;;;3.72;;
52047;SDS011;46904;49.438;8.752;2022-11-20T08:37:40;4.53;;;3.90;;
52047;SDS011;46904;49.438;8.752;2022-11-20T08:40:06;4.07;;;3.60;;
52047;SDS011;46904;49.438;8.752;2022-11-20T08:42:32;4.38;;;3.55;;
52047;SDS011;46904;49.438;8.752;2022-11-20T08:44:57;4.65;;;3.58;;
52047;SDS011;46904;49.438;8.752;2022-11-20T08:47:23;4.00;;;3.40;;
52047;SDS011;46904;49.438;8.752;2022-11-20T08:49:49;4.75;;;4.05;;
52047;SDS011;46904;49.438;8.752;2022-11-20T08:52:14;5.07;;;3.95;;
52047;SDS011;46904;49.438;8.752;2022-11-20T08:54:40;5.88;;;4.20;;
52047;SDS011;46904;49.438;8.752;2022-11-20T08:57:05;3.75;;;3.38;;
52047;SDS011;46904;49.438;8.752;2022-11-20T08:59:31;3.28;;;2.92;;
52047;SDS011;46904;49.438;8.752;2022-11-20T09:01:57;4.53;;;3.67;;
52047;SDS011;46904;49.438;8.752;2022-11-20T09:04:22;4.00;;;3.40;;
52047;SDS011;46904;49.438;8.752;2022-11-20T09:06:48;4.78;;;3.65;;
52047;SDS011;46904;49.438;8.752;2022-11-20T09:09:13;4.82;;;3.78;;
52047;SDS011;46904;49.438;8.752;2022-11-20T09:11:39;5.88;;;3.42;;
52047;SDS011;46904;49.438;8.752;2022-11-20T09:14:05;3.67;;;3.30;;
52047;SDS011;46904;49.438;8.752;2022-11-20T09:16:30;4.40;;;3.72;;
52047;SDS011;46904;49.438;8.752;2022-11-20T09:18:56;4.97;;;3.80;;
52047;SDS011;46904;49.438;8.752;2022-11-20T09:21:21;4.63;;;3.63;;
52047;SDS011;46904;49.438;8.752;2022-11-20T09:23:47;3.95;;;3.55;;
52047;SDS011;46904;49.438;8.752;2022-11-20T09:26:13;6.50;;;3.45;;
52047;SDS011;46904;49.438;8.752;2022-11-20T09:28:39;4.43;;;2.75;;
52047;SDS011;46904;49.438;8.752;2022-11-20T09:31:09;4.25;;;3.85;;
52047;SDS011;46904;49.438;8.752;2022-11-20T09:36:00;4.47;;;3.72;;
52047;SDS011;46904;49.438;8.752;2022-11-20T09:38:25;4.13;;;3.60;;
52047;SDS011;46904;49.438;8.752;2022-11-20T09:40:56;4.45;;;3.88;;
52047;SDS011;46904;49.438;8.752;2022-11-20T09:43:32;3.70;;;3.00;;
52047;SDS011;46904;49.438;8.752;2022-11-20T09:54:18;3.67;;;3.25;;
52047;SDS011;46904;49.438;8.752;2022-11-20T09:56:53;6.32;;;4.50;;
52047;SDS011;46904;49.438;8.752;2022-11-20T10:01:48;5.00;;;3.83;;
52047;SDS011;46904;49.438;8.752;2022-11-20T10:04:19;4.32;;;3.75;;
52047;SDS011;46904;49.438;8.752;2022-11-20T10:09:34;6.70;;;4.47;;
52047;SDS011;46904;49.438;8.752;2022-11-20T10:17:16;5.18;;;4.22;;
52047;SDS011;46904;49.438;8.752;2022-11-20T10:22:33;4.50;;;4.03;;
52047;SDS011;46904;49.438;8.752;2022-11-20T10:25:05;5.72;;;4.38;;
52047;SDS011;46904;49.438;8.752;2022-11-20T10:28:00;5.65;;;4.60;;
52047;SDS011;46904;49.438;8.752;2022-11-20T10:30:20;6.28;;;4.38;;
52047;SDS011;46904;49.438;8.752;2022-11-20T10:32:47;4.53;;;4.07;;
52047;SDS011;46904;49.438;8.752;2022-11-20T10:35:16;4.70;;;4.05;;
52047;SDS011;46904;49.438;8.752;2022-11-20T10:37:44;5.07;;;3.85;;
52047;SDS011;46904;49.438;8.752;2022-11-20T10:42:47;6.70;;;4.85;;
52047;SDS011;46904;49.438;8.752;2022-11-20T10:45:25;4.00;;;3.60;;
52047;SDS011;46904;49.438;8.752;2022-11-20T10:47:54;4.13;;;3.58;;
52047;SDS011;46904;49.438;8.752;2022-11-20T10:50:21;4.13;;;3.72;;
52047;SDS011;46904;49.438;8.752;2022-11-20T10:55:30;5.35;;;4.50;;
52047;SDS011;46904;49.438;8.752;2022-11-20T10:58:13;4.95;;;3.78;;
52047;SDS011;46904;49.438;8.752;2022-11-20T11:00:40;3.67;;;3.38;;
52047;SDS011;46904;49.438;8.752;2022-11-20T11:06:08;4.72;;;3.72;;
52047;SDS011;46904;49.438;8.752;2022-11-20T11:08:38;4.28;;;3.58;;
52047;SDS011;46904;49.438;8.752;2022-11-20T11:11:15;4.22;;;3.78;;
52047;SDS011;46904;49.438;8.752;2022-11-20T11:13:43;4.05;;;3.65;;
52047;SDS011;46904;49.438;8.752;2022-11-20T11:16:22;5.10;;;3.60;;
52047;SDS011;46904;49.438;8.752;2022-11-20T11:18:48;3.45;;;3.10;;
52047;SDS011;46904;49.438;8.752;2022-11-20T11:21:19;3.10;;;2.80;;
52047;SDS011;46904;49.438;8.752;2022-11-20T11:23:46;4.05;;;2.88;;
52047;SDS011;46904;49.438;8.752;2022-11-20T11:26:22;4.88;;;2.25;;
52047;SDS011;46904;49.438;8.752;2022-11-20T11:28:58;2.00;;;1.80;;
52047;SDS011;46904;49.438;8.752;2022-11-20T11:31:28;2.60;;;2.10;;
52047;SDS011;46904;49.438;8.752;2022-11-20T11:34:03;2.63;;;2.42;;
52047;SDS011;46904;49.438;8.752;2022-11-20T11:36:29;3.17;;;2.55;;
52047;SDS011;46904;49.438;8.752;2022-11-20T11:38:55;3.80;;;2.83;;
52047;SDS011;46904;49.438;8.752;2022-11-20T11:41:22;4.35;;;2.88;;
52047;SDS011;46904;49.438;8.752;2022-11-20T11:43:51;4.72;;;3.17;;
52047;SDS011;46904;49.438;8.752;2022-11-20T11:48:56;3.20;;;2.90;;
52047;SDS011;46904;49.438;8.752;2022-11-20T11:51:22;5.43;;;2.88;;
52047;SDS011;46904;49.438;8.752;2022-11-20T11:53:47;4.70;;;3.85;;
52047;SDS011;46904;49.438;8.752;2022-11-20T11:56:13;6.38;;;4.68;;
52047;SDS011;46904;49.438;8.752;2022-11-20T11:58:46;5.15;;;4.32;;
52047;SDS011;46904;49.438;8.752;2022-11-20T12:01:29;4.68;;;3.88;;
52047;SDS011;46904;49.438;8.752;2022-11-20T12:06:44;3.92;;;3.10;;
52047;SDS011;46904;49.438;8.752;2022-11-20T12:09:11;4.05;;;3.65;;
52047;SDS011;46904;49.438;8.752;2022-11-20T12:11:44;4.20;;;3.75;;
52047;SDS011;46904;49.438;8.752;2022-11-20T12:16:37;5.95;;;5.25;;
52047;SDS011;46904;49.438;8.752;2022-11-20T12:19:04;4.78;;;4.18;;
52047;SDS011;46904;49.438;8.752;2022-11-20T12:22:07;8.45;;;5.55;;
52047;SDS011;46904;49.438;8.752;2022-11-20T12:24:29;7.05;;;4.13;;
52047;SDS011;46904;49.438;8.752;2022-11-20T12:29:36;5.57;;;3.70;;
52047;SDS011;46904;49.438;8.752;2022-11-20T12:37:37;4.28;;;3.78;;
52047;SDS011;46904;49.438;8.752;2022-11-20T12:42:48;5.63;;;4.13;;
52047;SDS011;46904;49.438;8.752;2022-11-20T13:00:54;3.38;;;2.70;;
52047;SDS011;46904;49.438;8.752;2022-11-20T13:08:25;5.05;;;3.50;;
52047;SDS011;46904;49.438;8.752;2022-11-20T13:16:02;3.80;;;2.83;;
52047;SDS011;46904;49.438;8.752;2022-11-20T13:18:30;3.67;;;3.00;;
52047;SDS011;46904;49.438;8.752;2022-11-20T13:20:59;4.93;;;2.95;;
52047;SDS011;46904;49.438;8.752;2022-11-20T13:23:25;5.65;;;3.40;;
52047;SDS011;46904;49.438;8.752;2022-11-20T13:25:52;3.55;;;2.58;;
52047;SDS011;46904;49.438;8.752;2022-11-20T13:28:28;3.55;;;2.80;;
52047;SDS011;46904;49.438;8.752;2022-11-20T13:30:55;4.53;;;3.65;;
52047;SDS011;46904;49.438;8.752;2022-11-20T13:33:31;4.60;;;3.55;;
52047;SDS011;46904;49.438;8.752;2022-11-20T13:35:58;4.93;;;3.55;;
52047;SDS011;46904;49.438;8.752;2022-11-20T13:38:24;4.05;;;2.90;;
52047;SDS011;46904;49.438;8.752;2022-11-20T13:40:50;4.10;;;2.40;;
52047;SDS011;46904;49.438;8.752;2022-11-20T13:43:26;2.80;;;2.10;;
52047;SDS011;46904;49.438;8.752;2022-11-20T13:45:57;2.65;;;2.08;;
52047;SDS011;46904;49.438;8.752;2022-11-20T13:48:24;2.45;;;1.83;;
52047;SDS011;46904;49.438;8.752;2022-11-20T14:01:38;2.03;;;1.42;;
52047;SDS011;46904;49.438;8.752;2022-11-20T14:04:08;3.50;;;1.55;;
52047;SDS011;46904;49.438;8.752;2022-11-20T14:08:59;1.35;;;1.10;;
52047;SDS011;46904;49.438;8.752;2022-11-20T14:11:26;2.50;;;1.20;;
52047;SDS011;46904;49.438;8.752;2022-11-20T14:16:21;1.97;;;1.50;;
52047;SDS011;46904;49.438;8.752;2022-11-20T14:18:47;2.78;;;1.35;;
52047;SDS011;46904;49.438;8.752;2022-11-20T14:21:20;1.50;;;1.15;;
52047;SDS011;46904;49.438;8.752;2022-11-20T14:23:46;2.70;;;1.42;;
52047;SDS011;46904;49.438;8.752;2022-11-20T14:26:13;3.72;;;1.20;;
52047;SDS011;46904;49.438;8.752;2022-11-20T14:28:39;1.50;;;1.20;;
52047;SDS011;46904;49.438;8.752;2022-11-20T14:31:08;2.08;;;1.20;;
52047;SDS011;46904;49.438;8.752;2022-11-20T14:33:35;2.17;;;1.40;;
52047;SDS011;46904;49.438;8.752;2022-11-20T14:36:01;2.10;;;1.10;;
52047;SDS011;46904;49.438;8.752;2022-11-20T14:38:27;2.35;;;1.02;;
52047;SDS011;46904;49.438;8.752;2022-11-20T14:40:53;2.22;;;1.00;;
52047;SDS011;46904;49.438;8.752;2022-11-20T14:43:26;1.33;;;1.13;;
52047;SDS011;46904;49.438;8.752;2022-11-20T14:45:56;1.63;;;0.90;;
52047;SDS011;46904;49.438;8.752;2022-11-20T14:48:23;2.25;;;0.80;;
52047;SDS011;46904;49.438;8.752;2022-11-20T14:50:51;4.70;;;1.58;;
52047;SDS011;46904;49.438;8.752;2022-11-20T14:53:21;1.95;;;1.05;;
52047;SDS011;46904;49.438;8.752;2022-11-20T14:55:54;1.45;;;0.98;;
52047;SDS011;46904;49.438;8.752;2022-11-20T14:58:21;1.45;;;1.20;;
52047;SDS011;46904;49.438;8.752;2022-11-20T15:01:20;1.33;;;0.90;;
52047;SDS011;46904;49.438;8.752;2022-11-20T15:03:39;1.40;;;0.90;;
52047;SDS011;46904;49.438;8.752;2022-11-20T15:06:06;1.98;;;1.00;;
52047;SDS011;46904;49.438;8.752;2022-11-20T15:08:32;1.27;;;1.17;;
52047;SDS011;46904;49.438;8.752;2022-11-20T15:10:57;2.88;;;1.40;;
52047;SDS011;46904;49.438;8.752;2022-11-20T15:15:50;2.08;;;1.10;;
52047;SDS011;46904;49.438;8.752;2022-11-20T15:18:19;1.15;;;1.05;;
52047;SDS011;46904;49.438;8.752;2022-11-20T15:20:46;1.83;;;1.45;;
52047;SDS011;46904;49.438;8.752;2022-11-20T15:23:12;2.20;;;1.65;;
52047;SDS011;46904;49.438;8.752;2022-11-20T15:25:39;1.88;;;1.60;;
52047;SDS011;46904;49.438;8.752;2022-11-20T15:28:04;5.78;;;3.10;;
52047;SDS011;46904;49.438;8.752;2022-11-20T15:30:35;2.83;;;2.00;;
52047;SDS011;46904;49.438;8.752;2022-11-20T15:33:00;2.65;;;1.88;;
52047;SDS011;46904;49.438;8.752;2022-11-20T15:35:26;4.80;;;2.58;;
52047;SDS011;46904;49.438;8.752;2022-11-20T15:37:51;3.38;;;2.10;;
52047;SDS011;46904;49.438;8.752;2022-11-20T15:40:17;1.95;;;1.67;;
52047;SDS011;46904;49.438;8.752;2022-11-20T15:42:43;2.13;;;1.80;;
52047;SDS011;46904;49.438;8.752;2022-11-20T15:45:08;2.47;;;1.63;;
52047;SDS011;46904;49.438;8.752;2022-11-20T15:47:34;2.65;;;1.48;;
52047;SDS011;46904;49.438;8.752;2022-11-20T15:50:00;1.73;;;1.40;;
52047;SDS011;46904;49.438;8.752;2022-11-20T15:52:26;1.50;;;1.20;;
52047;SDS011;46904;49.438;8.752;2022-11-20T15:54:51;1.30;;;1.10;;
52047;SDS011;46904;49.438;8.752;2022-11-20T15:57:17;1.50;;;1.40;;
52047;SDS011;46904;49.438;8.752;2022-11-20T15:59:43;13.38;;;2.72;;
52047;SDS011;46904;49.438;8.752;2022-11-20T16:02:09;1.80;;;1.70;;
52047;SDS011;46904;49.438;8.752;2022-11-20T16:04:35;2.97;;;1.80;;
52047;SDS011;46904;49.438;8.752;2022-11-20T16:07:01;3.03;;;2.47;;
52047;SDS011;46904;49.438;8.752;2022-11-20T16:09:26;4.35;;;2.08;;
52047;SDS011;46904;49.438;8.752;2022-11-20T16:11:52;2.40;;;2.20;;
52047;SDS011;46904;49.438;8.752;2022-11-20T16:14:17;3.08;;;2.60;;
52047;SDS011;46904;49.438;8.752;2022-11-20T16:16:43;3.70;;;2.17;;
52047;SDS011;46904;49.438;8.752;2022-11-20T16:19:10;2.83;;;2.20;;
52047;SDS011;46904;49.438;8.752;2022-11-20T16:21:35;2.35;;;2.05;;
52047;SDS011;46904;49.438;8.752;2022-11-20T16:24:02;2.28;;;1.92;;
52047;SDS011;46904;49.438;8.752;2022-11-20T16:26:28;4.07;;;2.47;;
52047;SDS011;46904;49.438;8.752;2022-11-20T16:28:54;5.32;;;2.60;;